sensor_id;sensor_type;location;lat;lon;timestamp;P1;durP1;ratioP1;P2;durP2;ratioP2
56291;SDS011;54008;53.606;9.462;2022-11-25T00:01:16;39.88;;;14.45;;
56291;SDS011;54008;53.606;9.462;2022-11-25T00:03:43;28.77;;;13.77;;
56291;SDS011;54008;53.606;9.462;2022-11-25T00:06:16;33.53;;;13.70;;
56291;SDS011;54008;53.606;9.462;2022-11-25T00:08:44;28.48;;;12.88;;
56291;SDS011;54008;53.606;9.462;2022-11-25T00:11:11;26.38;;;13.60;;
56291;SDS011;54008;53.606;9.462;2022-11-25T00:13:37;30.85;;;14.70;;
56291;SDS011;54008;53.606;9.462;2022-11-25T00:16:07;32.00;;;14.27;;
56291;SDS011;54008;53.606;9.462;2022-11-25T00:18:34;25.63;;;13.20;;
56291;SDS011;54008;53.606;9.462;2022-11-25T00:21:10;28.45;;;13.05;;
56291;SDS011;54008;53.606;9.462;2022-11-25T00:23:38;27.08;;;12.82;;
56291;SDS011;54008;53.606;9.462;2022-11-25T00:26:10;30.65;;;14.38;;
56291;SDS011;54008;53.606;9.462;2022-11-25T00:28:40;31.15;;;13.70;;
56291;SDS011;54008;53.606;9.462;2022-11-25T00:31:21;29.02;;;13.18;;
56291;SDS011;54008;53.606;9.462;2022-11-25T00:33:50;35.25;;;13.13;;
56291;SDS011;54008;53.606;9.462;2022-11-25T00:36:20;27.10;;;14.30;;
56291;SDS011;54008;53.606;9.462;2022-11-25T00:39:06;26.70;;;13.50;;
56291;SDS011;54008;53.606;9.462;2022-11-25T00:41:35;29.05;;;12.68;;
56291;SDS011;54008;53.606;9.462;2022-11-25T00:44:19;26.70;;;12.52;;
56291;SDS011;54008;53.606;9.462;2022-11-25T00:47:00;29.45;;;12.68;;
56291;SDS011;54008;53.606;9.462;2022-11-25T00:49:27;27.10;;;13.40;;
56291;SDS011;54008;53.606;9.462;2022-11-25T00:51:53;34.88;;;13.93;;
56291;SDS011;54008;53.606;9.462;2022-11-25T00:54:18;35.53;;;12.98;;
56291;SDS011;54008;53.606;9.462;2022-11-25T00:56:44;30.30;;;13.02;;
56291;SDS011;54008;53.606;9.462;2022-11-25T00:59:09;33.53;;;12.60;;
56291;SDS011;54008;53.606;9.462;2022-11-25T01:01:34;30.83;;;13.18;;
56291;SDS011;54008;53.606;9.462;2022-11-25T01:04:00;23.77;;;12.20;;
56291;SDS011;54008;53.606;9.462;2022-11-25T01:06:25;26.88;;;12.82;;
56291;SDS011;54008;53.606;9.462;2022-11-25T01:08:50;35.65;;;13.52;;
56291;SDS011;54008;53.606;9.462;2022-11-25T01:11:17;31.25;;;12.85;;
56291;SDS011;54008;53.606;9.462;2022-11-25T01:13:44;26.98;;;12.60;;
56291;SDS011;54008;53.606;9.462;2022-11-25T01:16:11;34.33;;;13.90;;
56291;SDS011;54008;53.606;9.462;2022-11-25T01:18:39;34.50;;;13.65;;
56291;SDS011;54008;53.606;9.462;2022-11-25T01:21:06;37.25;;;14.10;;
56291;SDS011;54008;53.606;9.462;2022-11-25T01:23:35;30.63;;;14.18;;
56291;SDS011;54008;53.606;9.462;2022-11-25T01:26:05;27.20;;;12.70;;
56291;SDS011;54008;53.606;9.462;2022-11-25T01:28:34;26.20;;;12.43;;
56291;SDS011;54008;53.606;9.462;2022-11-25T01:31:04;28.10;;;12.88;;
56291;SDS011;54008;53.606;9.462;2022-11-25T01:33:34;26.10;;;12.93;;
56291;SDS011;54008;53.606;9.462;2022-11-25T01:36:04;32.05;;;14.05;;
56291;SDS011;54008;53.606;9.462;2022-11-25T01:38:31;33.50;;;13.52;;
56291;SDS011;54008;53.606;9.462;2022-11-25T01:40:57;31.42;;;13.10;;
56291;SDS011;54008;53.606;9.462;2022-11-25T01:43:23;32.22;;;13.95;;
56291;SDS011;54008;53.606;9.462;2022-11-25T01:45:49;35.47;;;13.60;;
56291;SDS011;54008;53.606;9.462;2022-11-25T01:48:19;31.25;;;13.68;;
56291;SDS011;54008;53.606;9.462;2022-11-25T01:50:49;32.25;;;13.73;;
56291;SDS011;54008;53.606;9.462;2022-11-25T01:53:15;33.40;;;13.55;;
56291;SDS011;54008;53.606;9.462;2022-11-25T01:55:44;30.98;;;12.95;;
56291;SDS011;54008;53.606;9.462;2022-11-25T02:00:50;33.65;;;12.35;;
56291;SDS011;54008;53.606;9.462;2022-11-25T02:03:20;28.55;;;13.50;;
56291;SDS011;54008;53.606;9.462;2022-11-25T02:06:01;29.00;;;12.05;;
56291;SDS011;54008;53.606;9.462;2022-11-25T02:08:30;32.30;;;13.55;;
56291;SDS011;54008;53.606;9.462;2022-11-25T02:10:57;28.05;;;12.02;;
56291;SDS011;54008;53.606;9.462;2022-11-25T02:13:24;29.42;;;12.20;;
56291;SDS011;54008;53.606;9.462;2022-11-25T02:15:50;23.13;;;11.20;;
56291;SDS011;54008;53.606;9.462;2022-11-25T02:18:15;27.60;;;12.45;;
56291;SDS011;54008;53.606;9.462;2022-11-25T02:20:41;24.92;;;11.13;;
56291;SDS011;54008;53.606;9.462;2022-11-25T02:23:16;30.52;;;12.40;;
56291;SDS011;54008;53.606;9.462;2022-11-25T02:25:49;28.30;;;10.90;;
56291;SDS011;54008;53.606;9.462;2022-11-25T02:28:16;26.48;;;12.07;;
56291;SDS011;54008;53.606;9.462;2022-11-25T02:30:45;25.27;;;11.80;;
56291;SDS011;54008;53.606;9.462;2022-11-25T02:33:10;28.58;;;13.57;;
56291;SDS011;54008;53.606;9.462;2022-11-25T02:35:40;35.47;;;14.00;;
56291;SDS011;54008;53.606;9.462;2022-11-25T02:40:49;29.10;;;12.50;;
56291;SDS011;54008;53.606;9.462;2022-11-25T02:43:18;26.15;;;12.13;;
56291;SDS011;54008;53.606;9.462;2022-11-25T02:46:18;26.15;;;11.95;;
56291;SDS011;54008;53.606;9.462;2022-11-25T02:48:40;30.02;;;13.60;;
56291;SDS011;54008;53.606;9.462;2022-11-25T02:51:07;28.40;;;11.55;;
56291;SDS011;54008;53.606;9.462;2022-11-25T02:53:35;31.15;;;11.65;;
56291;SDS011;54008;53.606;9.462;2022-11-25T02:56:00;29.85;;;12.60;;
56291;SDS011;54008;53.606;9.462;2022-11-25T02:58:26;26.70;;;11.93;;
56291;SDS011;54008;53.606;9.462;2022-11-25T03:00:51;30.95;;;11.07;;
56291;SDS011;54008;53.606;9.462;2022-11-25T03:03:16;25.33;;;10.38;;
56291;SDS011;54008;53.606;9.462;2022-11-25T03:05:42;29.92;;;12.00;;
56291;SDS011;54008;53.606;9.462;2022-11-25T03:08:08;30.75;;;12.48;;
56291;SDS011;54008;53.606;9.462;2022-11-25T03:10:34;30.58;;;12.25;;
56291;SDS011;54008;53.606;9.462;2022-11-25T03:12:59;34.50;;;12.65;;
56291;SDS011;54008;53.606;9.462;2022-11-25T03:15:25;26.75;;;12.30;;
56291;SDS011;54008;53.606;9.462;2022-11-25T03:17:50;24.70;;;10.73;;
56291;SDS011;54008;53.606;9.462;2022-11-25T03:20:16;27.50;;;11.48;;
56291;SDS011;54008;53.606;9.462;2022-11-25T03:22:42;24.58;;;11.57;;
56291;SDS011;54008;53.606;9.462;2022-11-25T03:25:08;23.63;;;10.90;;
56291;SDS011;54008;53.606;9.462;2022-11-25T03:27:35;24.52;;;11.18;;
56291;SDS011;54008;53.606;9.462;2022-11-25T03:30:01;21.50;;;9.68;;
56291;SDS011;54008;53.606;9.462;2022-11-25T03:32:29;23.05;;;11.25;;
56291;SDS011;54008;53.606;9.462;2022-11-25T03:34:54;25.95;;;11.20;;
56291;SDS011;54008;53.606;9.462;2022-11-25T03:37:19;23.15;;;10.95;;
56291;SDS011;54008;53.606;9.462;2022-11-25T03:39:44;23.88;;;10.48;;
56291;SDS011;54008;53.606;9.462;2022-11-25T03:42:10;25.27;;;10.98;;
56291;SDS011;54008;53.606;9.462;2022-11-25T03:44:35;31.48;;;13.25;;
56291;SDS011;54008;53.606;9.462;2022-11-25T03:47:01;26.88;;;11.75;;
56291;SDS011;54008;53.606;9.462;2022-11-25T03:49:26;28.33;;;10.45;;
56291;SDS011;54008;53.606;9.462;2022-11-25T03:51:51;30.38;;;13.05;;
56291;SDS011;54008;53.606;9.462;2022-11-25T03:54:16;23.70;;;10.95;;
56291;SDS011;54008;53.606;9.462;2022-11-25T03:56:42;23.98;;;10.55;;
56291;SDS011;54008;53.606;9.462;2022-11-25T03:59:07;27.80;;;11.75;;
56291;SDS011;54008;53.606;9.462;2022-11-25T04:01:32;20.17;;;10.38;;
56291;SDS011;54008;53.606;9.462;2022-11-25T04:03:58;22.48;;;10.63;;
56291;SDS011;54008;53.606;9.462;2022-11-25T04:06:23;22.27;;;10.52;;
56291;SDS011;54008;53.606;9.462;2022-11-25T04:08:49;20.65;;;9.80;;
56291;SDS011;54008;53.606;9.462;2022-11-25T04:11:14;24.58;;;10.15;;
56291;SDS011;54008;53.606;9.462;2022-11-25T04:13:40;27.17;;;10.20;;
56291;SDS011;54008;53.606;9.462;2022-11-25T04:16:05;25.42;;;9.93;;
56291;SDS011;54008;53.606;9.462;2022-11-25T04:18:30;28.88;;;10.02;;
56291;SDS011;54008;53.606;9.462;2022-11-25T04:20:56;26.02;;;10.65;;
56291;SDS011;54008;53.606;9.462;2022-11-25T04:23:22;26.30;;;10.90;;
56291;SDS011;54008;53.606;9.462;2022-11-25T04:25:48;27.23;;;11.40;;
56291;SDS011;54008;53.606;9.462;2022-11-25T04:28:14;25.10;;;11.32;;
56291;SDS011;54008;53.606;9.462;2022-11-25T04:30:40;26.35;;;10.25;;
56291;SDS011;54008;53.606;9.462;2022-11-25T04:33:05;28.05;;;11.98;;
56291;SDS011;54008;53.606;9.462;2022-11-25T04:35:31;23.48;;;10.23;;
56291;SDS011;54008;53.606;9.462;2022-11-25T04:37:56;30.67;;;9.55;;
56291;SDS011;54008;53.606;9.462;2022-11-25T04:40:21;23.08;;;10.27;;
56291;SDS011;54008;53.606;9.462;2022-11-25T04:42:46;24.58;;;10.48;;
56291;SDS011;54008;53.606;9.462;2022-11-25T04:45:13;23.40;;;10.15;;
56291;SDS011;54008;53.606;9.462;2022-11-25T04:47:41;25.38;;;11.18;;
56291;SDS011;54008;53.606;9.462;2022-11-25T04:50:11;28.17;;;10.77;;
56291;SDS011;54008;53.606;9.462;2022-11-25T04:52:40;26.63;;;10.43;;
56291;SDS011;54008;53.606;9.462;2022-11-25T04:55:06;25.63;;;9.98;;
56291;SDS011;54008;53.606;9.462;2022-11-25T04:57:31;26.27;;;10.02;;
56291;SDS011;54008;53.606;9.462;2022-11-25T04:59:57;25.00;;;9.35;;
56291;SDS011;54008;53.606;9.462;2022-11-25T05:02:23;30.38;;;9.90;;
56291;SDS011;54008;53.606;9.462;2022-11-25T05:04:51;22.98;;;10.27;;
56291;SDS011;54008;53.606;9.462;2022-11-25T05:07:19;28.02;;;10.77;;
56291;SDS011;54008;53.606;9.462;2022-11-25T05:09:45;28.08;;;10.07;;
56291;SDS011;54008;53.606;9.462;2022-11-25T05:12:12;23.80;;;9.27;;
56291;SDS011;54008;53.606;9.462;2022-11-25T05:14:39;26.90;;;10.43;;
56291;SDS011;54008;53.606;9.462;2022-11-25T05:17:05;27.02;;;9.95;;
56291;SDS011;54008;53.606;9.462;2022-11-25T05:19:31;32.78;;;10.00;;
56291;SDS011;54008;53.606;9.462;2022-11-25T05:21:59;32.47;;;10.15;;
56291;SDS011;54008;53.606;9.462;2022-11-25T05:24:25;20.65;;;9.15;;
56291;SDS011;54008;53.606;9.462;2022-11-25T05:26:50;25.70;;;10.43;;
56291;SDS011;54008;53.606;9.462;2022-11-25T05:29:16;27.25;;;9.20;;
56291;SDS011;54008;53.606;9.462;2022-11-25T05:31:41;25.65;;;8.80;;
56291;SDS011;54008;53.606;9.462;2022-11-25T05:34:07;21.25;;;8.75;;
56291;SDS011;54008;53.606;9.462;2022-11-25T05:36:32;24.98;;;9.27;;
56291;SDS011;54008;53.606;9.462;2022-11-25T05:38:58;24.67;;;9.18;;
56291;SDS011;54008;53.606;9.462;2022-11-25T05:41:23;23.15;;;8.75;;
56291;SDS011;54008;53.606;9.462;2022-11-25T05:43:49;24.05;;;8.65;;
56291;SDS011;54008;53.606;9.462;2022-11-25T05:46:15;28.00;;;10.35;;
56291;SDS011;54008;53.606;9.462;2022-11-25T05:48:40;21.92;;;8.73;;
56291;SDS011;54008;53.606;9.462;2022-11-25T05:51:06;22.35;;;9.18;;
56291;SDS011;54008;53.606;9.462;2022-11-25T05:53:32;21.60;;;8.18;;
56291;SDS011;54008;53.606;9.462;2022-11-25T05:56:00;22.15;;;8.65;;
56291;SDS011;54008;53.606;9.462;2022-11-25T05:58:27;17.70;;;9.20;;
56291;SDS011;54008;53.606;9.462;2022-11-25T06:00:54;27.02;;;9.95;;
56291;SDS011;54008;53.606;9.462;2022-11-25T06:03:22;22.00;;;8.68;;
56291;SDS011;54008;53.606;9.462;2022-11-25T06:05:48;23.17;;;8.50;;
56291;SDS011;54008;53.606;9.462;2022-11-25T06:08:13;24.80;;;8.57;;
56291;SDS011;54008;53.606;9.462;2022-11-25T06:10:39;22.60;;;7.80;;
56291;SDS011;54008;53.606;9.462;2022-11-25T06:13:04;23.85;;;7.88;;
56291;SDS011;54008;53.606;9.462;2022-11-25T06:15:31;21.15;;;7.60;;
56291;SDS011;54008;53.606;9.462;2022-11-25T06:17:56;19.92;;;7.88;;
56291;SDS011;54008;53.606;9.462;2022-11-25T06:20:21;21.02;;;6.88;;
56291;SDS011;54008;53.606;9.462;2022-11-25T06:22:46;18.20;;;7.00;;
56291;SDS011;54008;53.606;9.462;2022-11-25T06:25:12;22.20;;;8.35;;
56291;SDS011;54008;53.606;9.462;2022-11-25T06:27:37;22.85;;;8.32;;
56291;SDS011;54008;53.606;9.462;2022-11-25T06:30:02;16.65;;;7.45;;
56291;SDS011;54008;53.606;9.462;2022-11-25T06:32:28;22.17;;;7.45;;
56291;SDS011;54008;53.606;9.462;2022-11-25T06:34:53;18.63;;;7.35;;
56291;SDS011;54008;53.606;9.462;2022-11-25T06:37:18;17.45;;;6.97;;
56291;SDS011;54008;53.606;9.462;2022-11-25T06:39:44;17.08;;;7.50;;
56291;SDS011;54008;53.606;9.462;2022-11-25T06:42:09;19.25;;;7.53;;
56291;SDS011;54008;53.606;9.462;2022-11-25T06:44:35;16.17;;;6.60;;
56291;SDS011;54008;53.606;9.462;2022-11-25T06:47:00;22.90;;;7.40;;
56291;SDS011;54008;53.606;9.462;2022-11-25T06:49:25;19.45;;;7.15;;
56291;SDS011;54008;53.606;9.462;2022-11-25T06:51:52;18.38;;;8.88;;
56291;SDS011;54008;53.606;9.462;2022-11-25T06:54:17;18.40;;;7.68;;
56291;SDS011;54008;53.606;9.462;2022-11-25T06:56:43;28.77;;;7.82;;
56291;SDS011;54008;53.606;9.462;2022-11-25T06:59:08;16.00;;;7.45;;
56291;SDS011;54008;53.606;9.462;2022-11-25T07:01:33;20.08;;;7.15;;
56291;SDS011;54008;53.606;9.462;2022-11-25T07:04:00;17.48;;;6.75;;
56291;SDS011;54008;53.606;9.462;2022-11-25T07:06:27;13.32;;;6.28;;
56291;SDS011;54008;53.606;9.462;2022-11-25T07:08:54;19.17;;;7.50;;
56291;SDS011;54008;53.606;9.462;2022-11-25T07:11:24;22.35;;;7.28;;
56291;SDS011;54008;53.606;9.462;2022-11-25T07:13:52;20.15;;;7.13;;
56291;SDS011;54008;53.606;9.462;2022-11-25T07:16:19;14.20;;;6.47;;
56291;SDS011;54008;53.606;9.462;2022-11-25T07:18:45;20.60;;;7.00;;
56291;SDS011;54008;53.606;9.462;2022-11-25T07:21:11;21.38;;;6.97;;
56291;SDS011;54008;53.606;9.462;2022-11-25T07:23:39;20.98;;;7.55;;
56291;SDS011;54008;53.606;9.462;2022-11-25T07:26:06;18.60;;;6.43;;
56291;SDS011;54008;53.606;9.462;2022-11-25T07:28:34;20.70;;;6.30;;
56291;SDS011;54008;53.606;9.462;2022-11-25T07:31:08;16.55;;;6.18;;
56291;SDS011;54008;53.606;9.462;2022-11-25T07:33:37;19.70;;;6.32;;
56291;SDS011;54008;53.606;9.462;2022-11-25T07:36:03;18.63;;;6.57;;
56291;SDS011;54008;53.606;9.462;2022-11-25T07:38:31;22.17;;;6.22;;
56291;SDS011;54008;53.606;9.462;2022-11-25T07:41:02;18.05;;;7.47;;
56291;SDS011;54008;53.606;9.462;2022-11-25T07:43:38;21.08;;;6.65;;
56291;SDS011;54008;53.606;9.462;2022-11-25T07:48:40;17.48;;;6.10;;
56291;SDS011;54008;53.606;9.462;2022-11-25T07:51:39;18.17;;;6.32;;
56291;SDS011;54008;53.606;9.462;2022-11-25T07:54:02;19.00;;;6.65;;
56291;SDS011;54008;53.606;9.462;2022-11-25T07:56:29;15.75;;;5.63;;
56291;SDS011;54008;53.606;9.462;2022-11-25T07:58:55;22.13;;;5.95;;
56291;SDS011;54008;53.606;9.462;2022-11-25T08:01:21;18.40;;;6.68;;
56291;SDS011;54008;53.606;9.462;2022-11-25T08:03:47;17.42;;;5.80;;
56291;SDS011;54008;53.606;9.462;2022-11-25T08:06:15;18.25;;;5.93;;
56291;SDS011;54008;53.606;9.462;2022-11-25T08:08:42;18.00;;;5.78;;
56291;SDS011;54008;53.606;9.462;2022-11-25T08:11:08;26.48;;;5.95;;
56291;SDS011;54008;53.606;9.462;2022-11-25T08:13:36;20.60;;;6.05;;
56291;SDS011;54008;53.606;9.462;2022-11-25T08:16:01;18.60;;;5.80;;
56291;SDS011;54008;53.606;9.462;2022-11-25T08:18:27;20.10;;;5.80;;
56291;SDS011;54008;53.606;9.462;2022-11-25T08:20:57;12.48;;;5.18;;
56291;SDS011;54008;53.606;9.462;2022-11-25T08:23:23;16.08;;;5.35;;
56291;SDS011;54008;53.606;9.462;2022-11-25T08:25:49;13.55;;;4.78;;
56291;SDS011;54008;53.606;9.462;2022-11-25T08:28:14;12.32;;;5.88;;
56291;SDS011;54008;53.606;9.462;2022-11-25T08:30:39;20.67;;;6.10;;
56291;SDS011;54008;53.606;9.462;2022-11-25T08:33:04;18.92;;;5.78;;
56291;SDS011;54008;53.606;9.462;2022-11-25T08:35:31;17.88;;;5.90;;
56291;SDS011;54008;53.606;9.462;2022-11-25T08:38:01;16.23;;;5.93;;
56291;SDS011;54008;53.606;9.462;2022-11-25T08:40:27;17.73;;;5.40;;
56291;SDS011;54008;53.606;9.462;2022-11-25T08:42:52;19.38;;;5.88;;
56291;SDS011;54008;53.606;9.462;2022-11-25T08:45:17;22.42;;;5.88;;
56291;SDS011;54008;53.606;9.462;2022-11-25T08:47:43;17.35;;;6.05;;
56291;SDS011;54008;53.606;9.462;2022-11-25T08:50:08;19.73;;;5.63;;
56291;SDS011;54008;53.606;9.462;2022-11-25T08:52:34;10.52;;;5.18;;
56291;SDS011;54008;53.606;9.462;2022-11-25T08:55:00;15.48;;;5.20;;
56291;SDS011;54008;53.606;9.462;2022-11-25T08:57:25;16.48;;;5.70;;
56291;SDS011;54008;53.606;9.462;2022-11-25T08:59:50;13.85;;;5.40;;
56291;SDS011;54008;53.606;9.462;2022-11-25T09:02:16;15.10;;;5.38;;
56291;SDS011;54008;53.606;9.462;2022-11-25T09:04:42;17.40;;;4.90;;
56291;SDS011;54008;53.606;9.462;2022-11-25T09:07:07;25.02;;;6.50;;
56291;SDS011;54008;53.606;9.462;2022-11-25T09:09:32;16.90;;;5.22;;
56291;SDS011;54008;53.606;9.462;2022-11-25T09:11:58;14.93;;;5.60;;
56291;SDS011;54008;53.606;9.462;2022-11-25T09:14:23;27.42;;;5.70;;
56291;SDS011;54008;53.606;9.462;2022-11-25T09:16:48;21.13;;;5.53;;
56291;SDS011;54008;53.606;9.462;2022-11-25T09:19:14;19.40;;;5.97;;
56291;SDS011;54008;53.606;9.462;2022-11-25T09:21:39;21.77;;;6.07;;
56291;SDS011;54008;53.606;9.462;2022-11-25T09:24:07;17.75;;;5.85;;
56291;SDS011;54008;53.606;9.462;2022-11-25T09:26:33;24.35;;;6.00;;
56291;SDS011;54008;53.606;9.462;2022-11-25T09:29:00;22.13;;;5.88;;
56291;SDS011;54008;53.606;9.462;2022-11-25T09:31:26;17.50;;;5.15;;
56291;SDS011;54008;53.606;9.462;2022-11-25T09:33:52;21.52;;;5.82;;
56291;SDS011;54008;53.606;9.462;2022-11-25T09:36:18;19.92;;;6.03;;
56291;SDS011;54008;53.606;9.462;2022-11-25T09:38:45;19.15;;;5.78;;
56291;SDS011;54008;53.606;9.462;2022-11-25T09:44:39;24.60;;;6.97;;
56291;SDS011;54008;53.606;9.462;2022-11-25T09:53:43;21.20;;;5.60;;
56291;SDS011;54008;53.606;9.462;2022-11-25T09:59:22;15.13;;;5.30;;
56291;SDS011;54008;53.606;9.462;2022-11-25T10:01:54;18.20;;;5.47;;
56291;SDS011;54008;53.606;9.462;2022-11-25T10:04:26;23.48;;;6.60;;
56291;SDS011;54008;53.606;9.462;2022-11-25T10:06:58;20.85;;;5.47;;
56291;SDS011;54008;53.606;9.462;2022-11-25T10:09:27;16.17;;;5.85;;
56291;SDS011;54008;53.606;9.462;2022-11-25T10:12:04;19.83;;;5.77;;
56291;SDS011;54008;53.606;9.462;2022-11-25T10:14:49;16.85;;;5.00;;
56291;SDS011;54008;53.606;9.462;2022-11-25T10:20:27;19.50;;;6.03;;
56291;SDS011;54008;53.606;9.462;2022-11-25T10:22:55;19.55;;;6.97;;
56291;SDS011;54008;53.606;9.462;2022-11-25T10:28:02;23.85;;;6.57;;
56291;SDS011;54008;53.606;9.462;2022-11-25T10:30:58;15.88;;;5.95;;
56291;SDS011;54008;53.606;9.462;2022-11-25T10:33:26;28.10;;;7.28;;
56291;SDS011;54008;53.606;9.462;2022-11-25T10:35:59;22.73;;;6.55;;
56291;SDS011;54008;53.606;9.462;2022-11-25T10:38:39;18.40;;;6.13;;
56291;SDS011;54008;53.606;9.462;2022-11-25T10:41:08;18.52;;;6.15;;
56291;SDS011;54008;53.606;9.462;2022-11-25T10:43:39;20.83;;;7.13;;
56291;SDS011;54008;53.606;9.462;2022-11-25T10:46:22;15.30;;;6.60;;
56291;SDS011;54008;53.606;9.462;2022-11-25T10:49:17;19.88;;;6.32;;
56291;SDS011;54008;53.606;9.462;2022-11-25T10:51:47;20.70;;;6.35;;
56291;SDS011;54008;53.606;9.462;2022-11-25T10:56:58;15.30;;;6.20;;
56291;SDS011;54008;53.606;9.462;2022-11-25T10:59:27;23.27;;;6.65;;
56291;SDS011;54008;53.606;9.462;2022-11-25T11:02:09;13.85;;;5.90;;
56291;SDS011;54008;53.606;9.462;2022-11-25T11:07:30;18.17;;;6.37;;
56291;SDS011;54008;53.606;9.462;2022-11-25T11:15:17;13.88;;;5.90;;
56291;SDS011;54008;53.606;9.462;2022-11-25T11:17:45;17.17;;;6.93;;
56291;SDS011;54008;53.606;9.462;2022-11-25T11:25:28;18.75;;;6.47;;
56291;SDS011;54008;53.606;9.462;2022-11-25T11:27:55;27.05;;;7.30;;
56291;SDS011;54008;53.606;9.462;2022-11-25T11:30:23;17.90;;;6.70;;
56291;SDS011;54008;53.606;9.462;2022-11-25T11:32:56;22.58;;;7.20;;
56291;SDS011;54008;53.606;9.462;2022-11-25T11:35:54;20.45;;;7.57;;
56291;SDS011;54008;53.606;9.462;2022-11-25T11:38:30;25.52;;;7.80;;
56291;SDS011;54008;53.606;9.462;2022-11-25T11:41:04;21.50;;;7.70;;
56291;SDS011;54008;53.606;9.462;2022-11-25T11:55:11;18.42;;;6.45;;
56291;SDS011;54008;53.606;9.462;2022-11-25T11:57:47;17.52;;;5.85;;
56291;SDS011;54008;53.606;9.462;2022-11-25T12:00:28;20.17;;;5.68;;
56291;SDS011;54008;53.606;9.462;2022-11-25T12:03:13;17.95;;;6.10;;
56291;SDS011;54008;53.606;9.462;2022-11-25T12:05:42;19.67;;;6.18;;
56291;SDS011;54008;53.606;9.462;2022-11-25T12:08:21;19.13;;;6.50;;
56291;SDS011;54008;53.606;9.462;2022-11-25T12:10:55;19.35;;;5.93;;
56291;SDS011;54008;53.606;9.462;2022-11-25T12:18:58;19.08;;;6.13;;
56291;SDS011;54008;53.606;9.462;2022-11-25T12:24:34;15.55;;;5.95;;
56291;SDS011;54008;53.606;9.462;2022-11-25T12:27:14;16.67;;;5.53;;
56291;SDS011;54008;53.606;9.462;2022-11-25T12:29:57;16.10;;;6.13;;
56291;SDS011;54008;53.606;9.462;2022-11-25T12:40:32;19.52;;;5.30;;
56291;SDS011;54008;53.606;9.462;2022-11-25T12:43:20;17.27;;;5.47;;
56291;SDS011;54008;53.606;9.462;2022-11-25T12:45:56;17.40;;;6.32;;
56291;SDS011;54008;53.606;9.462;2022-11-25T12:48:29;18.65;;;5.47;;
56291;SDS011;54008;53.606;9.462;2022-11-25T12:53:49;23.55;;;6.55;;
56291;SDS011;54008;53.606;9.462;2022-11-25T12:56:37;19.33;;;6.30;;
56291;SDS011;54008;53.606;9.462;2022-11-25T13:02:34;16.88;;;6.97;;
56291;SDS011;54008;53.606;9.462;2022-11-25T13:05:40;20.23;;;7.53;;
56291;SDS011;54008;53.606;9.462;2022-11-25T13:14:12;22.50;;;6.93;;
56291;SDS011;54008;53.606;9.462;2022-11-25T13:17:07;14.57;;;7.15;;
56291;SDS011;54008;53.606;9.462;2022-11-25T13:19:35;13.30;;;6.38;;
56291;SDS011;54008;53.606;9.462;2022-11-25T13:22:02;29.60;;;8.45;;
56291;SDS011;54008;53.606;9.462;2022-11-25T13:26:56;17.90;;;8.70;;
56291;SDS011;54008;53.606;9.462;2022-11-25T13:31:58;27.98;;;10.18;;
56291;SDS011;54008;53.606;9.462;2022-11-25T13:37:02;44.17;;;20.40;;
56291;SDS011;54008;53.606;9.462;2022-11-25T13:40:10;29.67;;;12.88;;
56291;SDS011;54008;53.606;9.462;2022-11-25T13:42:50;24.65;;;13.15;;
56291;SDS011;54008;53.606;9.462;2022-11-25T13:48:12;27.02;;;10.88;;
56291;SDS011;54008;53.606;9.462;2022-11-25T13:50:42;28.38;;;11.45;;
56291;SDS011;54008;53.606;9.462;2022-11-25T13:55:47;28.07;;;9.70;;
56291;SDS011;54008;53.606;9.462;2022-11-25T13:58:23;30.33;;;10.57;;
56291;SDS011;54008;53.606;9.462;2022-11-25T14:01:00;25.35;;;11.95;;
56291;SDS011;54008;53.606;9.462;2022-11-25T14:08:41;30.15;;;13.23;;
56291;SDS011;54008;53.606;9.462;2022-11-25T14:25:21;39.88;;;14.43;;
56291;SDS011;54008;53.606;9.462;2022-11-25T14:27:55;31.08;;;14.00;;
56291;SDS011;54008;53.606;9.462;2022-11-25T14:30:29;35.85;;;15.30;;
56291;SDS011;54008;53.606;9.462;2022-11-25T14:33:00;32.35;;;13.82;;
56291;SDS011;54008;53.606;9.462;2022-11-25T14:35:39;33.45;;;14.48;;
56291;SDS011;54008;53.606;9.462;2022-11-25T14:38:10;35.42;;;12.73;;
56291;SDS011;54008;53.606;9.462;2022-11-25T14:43:22;36.35;;;15.05;;
56291;SDS011;54008;53.606;9.462;2022-11-25T14:46:08;33.33;;;14.77;;
56291;SDS011;54008;53.606;9.462;2022-11-25T14:48:41;34.03;;;13.75;;
56291;SDS011;54008;53.606;9.462;2022-11-25T14:51:08;32.75;;;13.48;;
56291;SDS011;54008;53.606;9.462;2022-11-25T14:53:43;29.50;;;14.55;;
56291;SDS011;54008;53.606;9.462;2022-11-25T14:56:11;27.17;;;13.93;;
56291;SDS011;54008;53.606;9.462;2022-11-25T14:58:38;30.45;;;15.02;;
56291;SDS011;54008;53.606;9.462;2022-11-25T15:01:08;30.55;;;13.40;;
56291;SDS011;54008;53.606;9.462;2022-11-25T15:03:45;42.08;;;13.38;;
56291;SDS011;54008;53.606;9.462;2022-11-25T15:06:14;26.75;;;13.65;;
56291;SDS011;54008;53.606;9.462;2022-11-25T15:08:44;33.78;;;13.75;;
56291;SDS011;54008;53.606;9.462;2022-11-25T15:11:20;32.13;;;14.75;;
56291;SDS011;54008;53.606;9.462;2022-11-25T15:13:53;31.58;;;13.90;;
56291;SDS011;54008;53.606;9.462;2022-11-25T15:16:36;27.67;;;13.57;;
56291;SDS011;54008;53.606;9.462;2022-11-25T15:19:05;32.67;;;12.63;;
56291;SDS011;54008;53.606;9.462;2022-11-25T15:21:40;24.95;;;12.32;;
56291;SDS011;54008;53.606;9.462;2022-11-25T15:24:19;27.13;;;12.43;;
56291;SDS011;54008;53.606;9.462;2022-11-25T15:26:49;28.35;;;12.65;;
56291;SDS011;54008;53.606;9.462;2022-11-25T15:29:17;35.70;;;14.52;;
56291;SDS011;54008;53.606;9.462;2022-11-25T15:31:43;30.13;;;14.35;;
56291;SDS011;54008;53.606;9.462;2022-11-25T15:34:11;37.72;;;14.55;;
56291;SDS011;54008;53.606;9.462;2022-11-25T15:36:38;36.35;;;15.07;;
56291;SDS011;54008;53.606;9.462;2022-11-25T15:39:14;37.05;;;15.55;;
56291;SDS011;54008;53.606;9.462;2022-11-25T15:41:41;39.92;;;14.68;;
56291;SDS011;54008;53.606;9.462;2022-11-25T15:44:16;28.92;;;14.40;;
56291;SDS011;54008;53.606;9.462;2022-11-25T15:46:48;32.78;;;14.45;;
56291;SDS011;54008;53.606;9.462;2022-11-25T15:49:16;35.95;;;15.52;;
56291;SDS011;54008;53.606;9.462;2022-11-25T15:54:28;36.38;;;16.25;;
56291;SDS011;54008;53.606;9.462;2022-11-25T15:57:13;29.77;;;15.98;;
56291;SDS011;54008;53.606;9.462;2022-11-25T15:59:46;30.67;;;14.70;;
56291;SDS011;54008;53.606;9.462;2022-11-25T16:10:48;32.53;;;14.77;;
56291;SDS011;54008;53.606;9.462;2022-11-25T16:16:33;27.95;;;12.85;;
56291;SDS011;54008;53.606;9.462;2022-11-25T16:26:30;29.10;;;15.47;;
56291;SDS011;54008;53.606;9.462;2022-11-25T16:28:59;31.97;;;14.13;;
56291;SDS011;54008;53.606;9.462;2022-11-25T16:31:26;32.92;;;15.10;;
56291;SDS011;54008;53.606;9.462;2022-11-25T16:33:56;31.95;;;14.73;;
56291;SDS011;54008;53.606;9.462;2022-11-25T16:39:40;42.83;;;15.75;;
56291;SDS011;54008;53.606;9.462;2022-11-25T16:42:05;34.25;;;15.63;;
56291;SDS011;54008;53.606;9.462;2022-11-25T16:44:32;36.15;;;16.25;;
56291;SDS011;54008;53.606;9.462;2022-11-25T16:46:58;40.35;;;16.92;;
56291;SDS011;54008;53.606;9.462;2022-11-25T16:49:24;48.05;;;18.88;;
56291;SDS011;54008;53.606;9.462;2022-11-25T16:51:50;51.15;;;20.75;;
56291;SDS011;54008;53.606;9.462;2022-11-25T16:54:19;38.95;;;18.58;;
56291;SDS011;54008;53.606;9.462;2022-11-25T16:56:46;47.65;;;21.05;;
56291;SDS011;54008;53.606;9.462;2022-11-25T16:59:16;41.85;;;20.10;;
56291;SDS011;54008;53.606;9.462;2022-11-25T17:01:43;46.80;;;19.73;;
56291;SDS011;54008;53.606;9.462;2022-11-25T17:04:10;49.97;;;19.17;;